Time;durP1;ratioP1;P1;durP2;ratioP2;P2;SDS_P1;SDS_P2;PMS_P1;PMS_P2;Temp;Humidity;BMP_temperature;BMP_pressure;BME280_temperature;BME280_humidity;BME280_pressure;Samples;Min_cycle;Max_cycle;Signal;HPM_P1;HPM_P2
2022/03/06 00:00:40;;;;;;;28.17;14.95;;;;;;;;;;4983837;28;20078;-86
2022/03/06 00:03:06;;;;;;;28.38;15.25;;;;;;;;;;4967558;28;20034;-86
2022/03/06 00:05:31;;;;;;;26.92;14.57;;;;;;;;;;4979692;28;21658;-84
2022/03/06 00:07:59;;;;;;;26.95;14.43;;;;;;;;;;4968992;28;20098;-87
2022/03/06 00:10:27;;;;;;;27.48;14.95;;;;;;;;;;4964423;28;20554;-87
2022/03/06 00:12:53;;;;;;;28.67;14.65;;;;;;;;;;4967461;28;20472;-83
2022/03/06 00:15:21;;;;;;;27.88;14.35;;;;;;;;;;4979766;28;20031;-86
2022/03/06 00:17:47;;;;;;;28.33;14.18;;;;;;;;;;4967822;28;20531;-88
2022/03/06 00:20:12;;;;;;;28.70;14.07;;;;;;;;;;4964056;28;20031;-87
2022/03/06 00:22:37;;;;;;;26.95;14.23;;;;;;;;;;4966277;28;20030;-83
2022/03/06 00:25:05;;;;;;;30.40;15.10;;;;;;;;;;4967070;28;20089;-86
2022/03/06 00:27:30;;;;;;;27.27;14.00;;;;;;;;;;4967211;28;20034;-85
2022/03/06 00:29:55;;;;;;;26.13;14.15;;;;;;;;;;4980060;28;20037;-86
2022/03/06 00:32:21;;;;;;;27.38;14.93;;;;;;;;;;4980586;28;20101;-87
2022/03/06 00:34:48;;;;;;;23.73;13.55;;;;;;;;;;4972578;28;20550;-88
2022/03/06 00:37:15;;;;;;;29.23;14.57;;;;;;;;;;4968163;28;20058;-86
2022/03/06 00:39:41;;;;;;;29.80;15.00;;;;;;;;;;4972349;28;20547;-83
2022/03/06 00:42:07;;;;;;;26.90;14.02;;;;;;;;;;4965595;28;20034;-83
2022/03/06 00:44:33;;;;;;;28.02;14.70;;;;;;;;;;4973852;28;20534;-83
2022/03/06 00:46:58;;;;;;;26.67;13.02;;;;;;;;;;4966821;28;20031;-86
2022/03/06 00:49:24;;;;;;;24.95;13.75;;;;;;;;;;4974016;28;20033;-83
2022/03/06 00:51:49;;;;;;;27.27;13.70;;;;;;;;;;4960663;28;20431;-87
2022/03/06 00:54:15;;;;;;;26.80;14.35;;;;;;;;;;4967634;28;20042;-83
2022/03/06 00:56:40;;;;;;;26.08;13.38;;;;;;;;;;4969758;28;20031;-86
2022/03/06 00:59:06;;;;;;;25.30;13.90;;;;;;;;;;4972948;28;20059;-86
2022/03/06 01:01:31;;;;;;;29.65;14.23;;;;;;;;;;4981053;28;20041;-86
2022/03/06 01:03:57;;;;;;;27.13;14.68;;;;;;;;;;4964466;28;20031;-83
2022/03/06 01:06:22;;;;;;;25.90;14.27;;;;;;;;;;4978736;28;20391;-86
2022/03/06 01:08:47;;;;;;;26.85;14.57;;;;;;;;;;4978324;28;20023;-85
2022/03/06 01:11:13;;;;;;;28.92;14.93;;;;;;;;;;4958996;28;20064;-84
2022/03/06 01:13:38;;;;;;;26.10;14.60;;;;;;;;;;4976894;28;20023;-83
2022/03/06 01:16:04;;;;;;;27.77;14.98;;;;;;;;;;4961546;28;20546;-86
2022/03/06 01:18:29;;;;;;;27.80;14.48;;;;;;;;;;4960115;28;20050;-86
2022/03/06 01:20:54;;;;;;;27.70;14.23;;;;;;;;;;4968370;28;20404;-84
2022/03/06 01:23:20;;;;;;;25.23;13.52;;;;;;;;;;4970981;28;20038;-87
2022/03/06 01:25:45;;;;;;;26.85;13.40;;;;;;;;;;4967079;28;20031;-85
2022/03/06 01:28:10;;;;;;;24.42;13.23;;;;;;;;;;4975156;28;20031;-82
2022/03/06 01:30:36;;;;;;;26.25;13.45;;;;;;;;;;4979654;28;21738;-83
2022/03/06 01:33:01;;;;;;;26.25;13.23;;;;;;;;;;4967735;28;20065;-87
2022/03/06 01:35:27;;;;;;;22.95;12.25;;;;;;;;;;4962686;28;20039;-86
2022/03/06 01:37:52;;;;;;;25.40;13.95;;;;;;;;;;4975849;28;20089;-87
2022/03/06 01:40:20;;;;;;;25.10;12.73;;;;;;;;;;4961600;28;20392;-85
2022/03/06 01:42:48;;;;;;;23.70;13.23;;;;;;;;;;4978608;28;20061;-82
2022/03/06 01:45:14;;;;;;;22.88;12.90;;;;;;;;;;4970419;28;20398;-84
2022/03/06 01:47:42;;;;;;;23.83;12.30;;;;;;;;;;4982050;28;20038;-88
2022/03/06 01:50:20;;;;;;;25.83;12.52;;;;;;;;;;4968594;28;20668;-84
2022/03/06 01:52:47;;;;;;;24.92;12.57;;;;;;;;;;4963461;28;20035;-83
2022/03/06 01:55:15;;;;;;;24.67;12.38;;;;;;;;;;4968788;28;20098;-87
2022/03/06 01:57:42;;;;;;;27.30;13.93;;;;;;;;;;4967158;28;20031;-83
2022/03/06 02:00:12;;;;;;;23.48;12.18;;;;;;;;;;4964075;28;20117;-84
2022/03/06 02:02:38;;;;;;;24.48;13.07;;;;;;;;;;4974140;28;20034;-83
2022/03/06 02:05:03;;;;;;;22.80;12.52;;;;;;;;;;4975462;28;21845;-86
2022/03/06 02:07:29;;;;;;;23.50;12.43;;;;;;;;;;4962868;28;20038;-83
2022/03/06 02:09:56;;;;;;;25.30;13.43;;;;;;;;;;4977164;28;20059;-83
2022/03/06 02:12:24;;;;;;;26.55;12.35;;;;;;;;;;4977562;28;20034;-83
2022/03/06 02:14:50;;;;;;;24.38;12.63;;;;;;;;;;4958978;28;20058;-85
2022/03/06 02:17:17;;;;;;;20.67;11.75;;;;;;;;;;4977792;28;20036;-86
2022/03/06 02:19:51;;;;;;;22.83;12.52;;;;;;;;;;4975251;28;20027;-83
2022/03/06 02:22:17;;;;;;;22.63;12.00;;;;;;;;;;4977496;28;20372;-85
2022/03/06 02:24:42;;;;;;;21.70;11.98;;;;;;;;;;4976011;28;20026;-86
2022/03/06 02:27:08;;;;;;;21.60;11.85;;;;;;;;;;4966047;28;20053;-84
2022/03/06 02:29:33;;;;;;;25.17;12.43;;;;;;;;;;4976092;28;20042;-86
2022/03/06 02:32:00;;;;;;;21.95;12.52;;;;;;;;;;4977517;28;20037;-83
2022/03/06 02:34:28;;;;;;;23.15;12.45;;;;;;;;;;4962695;28;20122;-83
2022/03/06 02:36:53;;;;;;;23.75;12.50;;;;;;;;;;4966693;28;20051;-87
2022/03/06 02:39:24;;;;;;;22.50;11.68;;;;;;;;;;4964308;28;20034;-87
2022/03/06 02:41:49;;;;;;;22.95;12.13;;;;;;;;;;4965145;28;20764;-86
2022/03/06 02:44:15;;;;;;;19.73;11.50;;;;;;;;;;4962173;28;20046;-87
2022/03/06 02:46:40;;;;;;;20.65;10.57;;;;;;;;;;4982547;28;20436;-82
2022/03/06 02:49:05;;;;;;;21.63;12.05;;;;;;;;;;4966272;28;20057;-86
2022/03/06 02:51:31;;;;;;;21.67;12.00;;;;;;;;;;4960311;28;20777;-84
2022/03/06 02:53:56;;;;;;;20.35;12.35;;;;;;;;;;4979335;28;20027;-87
2022/03/06 02:56:21;;;;;;;19.00;11.15;;;;;;;;;;4964750;28;21030;-87
2022/03/06 02:58:47;;;;;;;20.90;11.32;;;;;;;;;;4960072;28;20026;-86
2022/03/06 03:01:12;;;;;;;21.15;11.32;;;;;;;;;;4977254;28;20031;-86
2022/03/06 03:03:39;;;;;;;22.35;11.52;;;;;;;;;;4966816;28;20027;-83
2022/03/06 03:06:07;;;;;;;20.13;11.68;;;;;;;;;;4966394;28;21012;-83
2022/03/06 03:08:32;;;;;;;19.55;11.10;;;;;;;;;;4970735;28;20050;-85
2022/03/06 03:10:58;;;;;;;20.50;11.70;;;;;;;;;;4969492;28;20443;-83
2022/03/06 03:13:23;;;;;;;19.50;11.10;;;;;;;;;;4964075;28;20078;-84
2022/03/06 03:15:48;;;;;;;23.80;12.38;;;;;;;;;;4968239;28;20026;-85
2022/03/06 03:18:13;;;;;;;20.00;11.43;;;;;;;;;;4976239;28;20394;-84
2022/03/06 03:20:39;;;;;;;20.13;11.48;;;;;;;;;;4978139;28;20058;-87
2022/03/06 03:23:04;;;;;;;20.95;12.23;;;;;;;;;;4964990;28;20022;-83
2022/03/06 03:25:30;;;;;;;22.55;11.40;;;;;;;;;;4966540;28;20034;-86
2022/03/06 03:27:55;;;;;;;22.10;11.55;;;;;;;;;;4983287;28;20077;-85
2022/03/06 03:30:21;;;;;;;18.60;11.55;;;;;;;;;;4969179;28;20039;-84
2022/03/06 03:32:46;;;;;;;19.00;10.88;;;;;;;;;;4966002;28;20042;-84
2022/03/06 03:35:12;;;;;;;19.08;11.52;;;;;;;;;;4982215;28;20054;-87
2022/03/06 03:37:37;;;;;;;18.55;11.48;;;;;;;;;;4976980;28;20447;-83
2022/03/06 03:40:05;;;;;;;18.48;11.13;;;;;;;;;;4965976;28;20039;-86
2022/03/06 03:42:30;;;;;;;19.27;12.02;;;;;;;;;;4963495;28;21636;-88
2022/03/06 03:44:56;;;;;;;19.10;11.43;;;;;;;;;;4984103;28;20035;-87
2022/03/06 03:47:21;;;;;;;18.33;11.13;;;;;;;;;;4972208;28;20093;-86
2022/03/06 03:49:46;;;;;;;19.77;11.18;;;;;;;;;;4966588;28;20035;-87
2022/03/06 03:52:12;;;;;;;19.17;11.48;;;;;;;;;;4982424;28;20415;-86
2022/03/06 03:54:37;;;;;;;19.38;10.63;;;;;;;;;;4971025;28;20122;-86
2022/03/06 03:57:03;;;;;;;19.10;11.25;;;;;;;;;;4985965;28;20077;-87
2022/03/06 03:59:28;;;;;;;18.48;11.25;;;;;;;;;;4969676;28;20038;-87
2022/03/06 04:01:54;;;;;;;19.00;10.90;;;;;;;;;;4970164;28;20113;-83
2022/03/06 04:04:19;;;;;;;18.67;11.30;;;;;;;;;;4967239;28;20034;-87
2022/03/06 04:06:45;;;;;;;17.65;10.73;;;;;;;;;;4969001;28;20039;-86
2022/03/06 04:09:10;;;;;;;19.70;11.63;;;;;;;;;;4981392;28;20061;-86
2022/03/06 04:11:36;;;;;;;17.88;10.32;;;;;;;;;;4985141;28;20030;-83
2022/03/06 04:14:01;;;;;;;17.75;10.95;;;;;;;;;;4963933;28;20046;-86
2022/03/06 04:16:27;;;;;;;18.50;10.95;;;;;;;;;;4982600;28;20023;-86
2022/03/06 04:18:52;;;;;;;19.10;11.02;;;;;;;;;;4969974;28;20023;-83
2022/03/06 04:21:17;;;;;;;18.58;11.35;;;;;;;;;;4977915;28;20357;-86
2022/03/06 04:23:44;;;;;;;18.77;11.25;;;;;;;;;;4984223;28;20034;-87
2022/03/06 04:26:09;;;;;;;20.35;11.65;;;;;;;;;;4980508;28;20042;-83
2022/03/06 04:28:35;;;;;;;19.60;11.73;;;;;;;;;;4962089;28;20031;-83
2022/03/06 04:31:00;;;;;;;17.73;11.15;;;;;;;;;;4963355;28;20034;-85
2022/03/06 04:33:25;;;;;;;18.35;11.38;;;;;;;;;;4969453;28;20468;-86
2022/03/06 04:35:51;;;;;;;18.33;11.52;;;;;;;;;;4976905;28;20050;-86
2022/03/06 04:38:16;;;;;;;17.27;10.27;;;;;;;;;;4967714;28;20044;-84
2022/03/06 04:40:42;;;;;;;18.23;11.05;;;;;;;;;;4965032;28;20118;-83
2022/03/06 04:43:07;;;;;;;18.95;11.10;;;;;;;;;;4963715;28;20035;-85
2022/03/06 04:45:33;;;;;;;18.20;10.27;;;;;;;;;;4961338;28;20081;-86
2022/03/06 04:47:58;;;;;;;18.45;10.93;;;;;;;;;;4978318;28;20027;-85
2022/03/06 04:50:23;;;;;;;19.05;11.35;;;;;;;;;;4959524;28;20054;-83
2022/03/06 04:52:49;;;;;;;17.77;11.10;;;;;;;;;;4968409;28;20034;-83
2022/03/06 04:55:14;;;;;;;18.90;11.20;;;;;;;;;;4981126;28;20395;-85
2022/03/06 04:57:40;;;;;;;19.00;11.57;;;;;;;;;;4981416;28;20019;-86
2022/03/06 05:00:07;;;;;;;17.77;10.63;;;;;;;;;;4967680;28;20062;-84
2022/03/06 05:02:32;;;;;;;19.85;11.80;;;;;;;;;;4984852;28;20052;-83
2022/03/06 05:04:57;;;;;;;17.30;11.00;;;;;;;;;;4977911;28;20126;-84
2022/03/06 05:07:23;;;;;;;17.40;11.07;;;;;;;;;;4959830;28;20050;-84
2022/03/06 05:09:48;;;;;;;17.05;10.25;;;;;;;;;;4961887;28;20019;-84
2022/03/06 05:12:13;;;;;;;18.92;10.85;;;;;;;;;;4964906;28;20019;-82
2022/03/06 05:14:39;;;;;;;17.17;10.05;;;;;;;;;;4969460;28;20391;-87
2022/03/06 05:17:05;;;;;;;18.25;10.80;;;;;;;;;;4965488;28;20039;-83
2022/03/06 05:19:30;;;;;;;18.45;11.30;;;;;;;;;;4967423;28;20077;-83
2022/03/06 05:21:56;;;;;;;18.92;11.52;;;;;;;;;;4973631;28;20026;-86
2022/03/06 05:24:21;;;;;;;22.77;10.43;;;;;;;;;;4963988;28;20035;-82
2022/03/06 05:26:46;;;;;;;18.15;11.00;;;;;;;;;;4985165;28;20117;-83
2022/03/06 05:29:12;;;;;;;18.65;11.13;;;;;;;;;;4976263;28;20487;-82
2022/03/06 05:31:37;;;;;;;16.50;10.32;;;;;;;;;;4969864;28;20502;-83
2022/03/06 05:34:03;;;;;;;18.17;9.95;;;;;;;;;;4965139;28;20039;-86
2022/03/06 05:36:28;;;;;;;16.10;10.73;;;;;;;;;;4976788;28;20026;-85
2022/03/06 05:38:53;;;;;;;18.15;10.75;;;;;;;;;;4977613;28;20534;-84
2022/03/06 05:41:19;;;;;;;17.55;11.23;;;;;;;;;;4964265;28;20386;-84
2022/03/06 05:43:44;;;;;;;19.00;11.35;;;;;;;;;;4962899;28;20039;-83
2022/03/06 05:46:09;;;;;;;17.83;10.70;;;;;;;;;;4969709;28;20030;-83
2022/03/06 05:48:35;;;;;;;17.23;10.43;;;;;;;;;;4962112;28;20069;-84
2022/03/06 05:51:00;;;;;;;18.75;10.35;;;;;;;;;;4961284;28;20027;-86
2022/03/06 05:53:25;;;;;;;15.23;9.80;;;;;;;;;;4964113;28;20027;-83
2022/03/06 05:55:51;;;;;;;18.20;10.30;;;;;;;;;;4965899;28;20084;-86
2022/03/06 05:58:16;;;;;;;16.92;9.98;;;;;;;;;;4976188;28;20046;-83
2022/03/06 06:00:42;;;;;;;18.90;10.75;;;;;;;;;;4962732;28;20037;-83
2022/03/06 06:03:07;;;;;;;16.23;10.32;;;;;;;;;;4961538;28;20039;-82
2022/03/06 06:05:32;;;;;;;19.23;11.05;;;;;;;;;;4979036;28;20077;-86
2022/03/06 06:07:58;;;;;;;17.02;10.32;;;;;;;;;;4979163;28;20023;-84
2022/03/06 06:10:23;;;;;;;19.00;10.30;;;;;;;;;;4967383;28;20380;-82
2022/03/06 06:12:48;;;;;;;16.38;10.43;;;;;;;;;;4967297;28;20033;-83
2022/03/06 06:15:14;;;;;;;17.83;11.02;;;;;;;;;;4982747;28;20031;-84
2022/03/06 06:17:39;;;;;;;17.70;10.85;;;;;;;;;;4966507;28;20030;-83
2022/03/06 06:20:07;;;;;;;17.23;10.18;;;;;;;;;;4959292;28;20380;-83
2022/03/06 06:22:34;;;;;;;18.90;11.38;;;;;;;;;;4974718;28;20038;-83
2022/03/06 06:25:00;;;;;;;16.80;10.35;;;;;;;;;;4962044;28;20027;-83
2022/03/06 06:27:26;;;;;;;17.35;10.40;;;;;;;;;;4975121;28;20174;-83
2022/03/06 06:29:52;;;;;;;17.63;10.82;;;;;;;;;;4964154;28;20031;-82
2022/03/06 06:32:18;;;;;;;19.52;11.10;;;;;;;;;;4967496;28;20038;-85
2022/03/06 06:34:44;;;;;;;18.33;11.18;;;;;;;;;;4961173;28;20436;-83
2022/03/06 06:37:10;;;;;;;18.33;11.02;;;;;;;;;;4964357;28;20071;-85
2022/03/06 06:39:36;;;;;;;18.55;10.02;;;;;;;;;;4962719;28;20054;-83
2022/03/06 06:42:03;;;;;;;18.30;10.73;;;;;;;;;;4962947;28;20080;-82
2022/03/06 06:44:28;;;;;;;16.30;10.10;;;;;;;;;;4968541;28;20034;-83
2022/03/06 06:46:53;;;;;;;18.38;10.73;;;;;;;;;;4964931;28;20037;-83
2022/03/06 06:49:19;;;;;;;17.75;10.95;;;;;;;;;;4961633;28;20412;-84
2022/03/06 06:51:44;;;;;;;17.00;10.25;;;;;;;;;;4964801;28;20174;-86
2022/03/06 06:54:10;;;;;;;19.00;10.93;;;;;;;;;;4976270;28;20483;-84
2022/03/06 06:56:35;;;;;;;18.23;10.23;;;;;;;;;;4968842;28;20043;-82
2022/03/06 06:59:01;;;;;;;16.85;10.68;;;;;;;;;;4966855;28;20046;-83
2022/03/06 07:01:26;;;;;;;17.20;10.55;;;;;;;;;;4976229;28;20030;-82
2022/03/06 07:03:51;;;;;;;18.15;10.77;;;;;;;;;;4969168;28;20093;-86
2022/03/06 07:06:20;;;;;;;17.80;10.45;;;;;;;;;;4981420;28;20035;-85
2022/03/06 07:08:45;;;;;;;17.80;10.18;;;;;;;;;;4980610;28;20034;-86
2022/03/06 07:11:10;;;;;;;16.67;10.75;;;;;;;;;;4976831;28;20031;-84
2022/03/06 07:13:36;;;;;;;18.70;10.93;;;;;;;;;;4960221;28;20027;-83
2022/03/06 07:16:02;;;;;;;16.45;10.10;;;;;;;;;;4971457;28;20494;-83
2022/03/06 07:18:27;;;;;;;17.25;9.98;;;;;;;;;;4973709;28;20038;-86
2022/03/06 07:20:53;;;;;;;17.55;10.73;;;;;;;;;;4985166;28;20022;-84
2022/03/06 07:23:19;;;;;;;16.20;10.32;;;;;;;;;;4987162;28;20046;-85
2022/03/06 07:25:44;;;;;;;17.00;10.20;;;;;;;;;;4969015;28;20043;-83
2022/03/06 07:28:10;;;;;;;18.52;11.00;;;;;;;;;;4971270;28;20510;-82
2022/03/06 07:30:35;;;;;;;18.13;10.65;;;;;;;;;;4970051;28;20058;-86
2022/03/06 07:33:01;;;;;;;19.20;10.75;;;;;;;;;;4971438;28;20023;-83
2022/03/06 07:35:28;;;;;;;16.55;10.40;;;;;;;;;;4973438;28;20050;-82
2022/03/06 07:37:54;;;;;;;19.83;11.88;;;;;;;;;;4961878;28;20133;-85
2022/03/06 07:40:22;;;;;;;16.05;10.63;;;;;;;;;;4967201;28;20106;-83
2022/03/06 07:42:47;;;;;;;16.98;10.38;;;;;;;;;;4963021;28;20534;-85
2022/03/06 07:45:13;;;;;;;18.27;10.98;;;;;;;;;;4975246;28;20038;-85
2022/03/06 07:47:40;;;;;;;15.07;10.65;;;;;;;;;;4976443;28;20058;-83
2022/03/06 07:50:07;;;;;;;17.67;11.32;;;;;;;;;;4981335;28;20030;-84
2022/03/06 07:52:33;;;;;;;18.05;11.00;;;;;;;;;;4965896;28;20031;-86
2022/03/06 07:54:59;;;;;;;18.45;10.60;;;;;;;;;;4961464;28;20062;-86
2022/03/06 07:57:24;;;;;;;16.48;10.25;;;;;;;;;;4972389;28;20069;-87
2022/03/06 07:59:49;;;;;;;19.13;12.63;;;;;;;;;;4966182;28;20118;-83
2022/03/06 08:02:15;;;;;;;17.45;11.52;;;;;;;;;;4967921;28;20026;-83
2022/03/06 08:04:43;;;;;;;16.80;10.85;;;;;;;;;;4976450;28;20122;-85
2022/03/06 08:07:14;;;;;;;16.90;11.00;;;;;;;;;;4963455;28;20100;-85
2022/03/06 08:09:48;;;;;;;17.92;11.15;;;;;;;;;;4978118;28;20027;-83
2022/03/06 08:12:16;;;;;;;17.85;11.15;;;;;;;;;;4970859;28;20429;-86
2022/03/06 08:14:45;;;;;;;18.27;11.25;;;;;;;;;;4970697;28;20113;-83
2022/03/06 08:17:13;;;;;;;16.58;10.65;;;;;;;;;;4988123;28;20030;-85
2022/03/06 08:19:39;;;;;;;16.90;11.13;;;;;;;;;;4967904;28;20579;-83
2022/03/06 08:22:07;;;;;;;15.63;10.65;;;;;;;;;;4966778;28;20113;-83
2022/03/06 08:24:36;;;;;;;15.52;10.38;;;;;;;;;;4967301;28;20555;-85
2022/03/06 08:27:14;;;;;;;17.17;10.90;;;;;;;;;;4973471;28;20031;-81
2022/03/06 08:29:44;;;;;;;18.83;10.88;;;;;;;;;;4981250;28;20027;-85
2022/03/06 08:32:10;;;;;;;16.00;10.50;;;;;;;;;;4966590;28;20038;-86
2022/03/06 08:34:51;;;;;;;16.50;10.80;;;;;;;;;;4984943;28;20035;-84
2022/03/06 08:37:19;;;;;;;15.73;10.68;;;;;;;;;;4972862;28;20443;-85
2022/03/06 08:39:49;;;;;;;16.35;11.13;;;;;;;;;;4967372;28;20789;-85
2022/03/06 08:42:20;;;;;;;15.68;10.23;;;;;;;;;;4982207;28;20034;-85
2022/03/06 08:44:50;;;;;;;17.33;10.80;;;;;;;;;;4968639;28;20651;-83
2022/03/06 08:47:21;;;;;;;14.88;9.82;;;;;;;;;;4981883;28;20491;-83
2022/03/06 08:49:52;;;;;;;18.77;11.30;;;;;;;;;;4968397;28;20026;-86
2022/03/06 08:52:20;;;;;;;15.00;10.50;;;;;;;;;;4967292;28;20058;-82
2022/03/06 08:54:51;;;;;;;14.52;10.27;;;;;;;;;;4980141;28;20062;-86
2022/03/06 08:57:25;;;;;;;15.27;9.88;;;;;;;;;;4967319;28;20046;-81
2022/03/06 08:59:53;;;;;;;17.40;10.90;;;;;;;;;;4968286;28;20114;-86
2022/03/06 09:02:24;;;;;;;15.23;9.68;;;;;;;;;;4969023;28;20054;-84
2022/03/06 09:04:50;;;;;;;15.43;10.45;;;;;;;;;;4969117;28;20458;-82
2022/03/06 09:07:16;;;;;;;15.40;10.40;;;;;;;;;;4969122;28;20181;-81
2022/03/06 09:09:44;;;;;;;17.23;10.70;;;;;;;;;;4963936;28;20023;-84
2022/03/06 09:12:13;;;;;;;18.00;10.93;;;;;;;;;;4984217;28;20041;-84
2022/03/06 09:14:59;;;;;;;16.50;9.90;;;;;;;;;;4977913;28;20658;-86
2022/03/06 09:17:27;;;;;;;16.95;9.73;;;;;;;;;;4965103;28;20031;-84
2022/03/06 09:19:57;;;;;;;17.38;11.05;;;;;;;;;;4982478;28;20031;-86
2022/03/06 09:22:27;;;;;;;16.35;10.50;;;;;;;;;;4964745;28;20069;-87
2022/03/06 09:24:55;;;;;;;17.20;10.90;;;;;;;;;;4961291;28;20063;-85
2022/03/06 09:27:26;;;;;;;14.55;10.43;;;;;;;;;;4964073;28;20038;-81
2022/03/06 09:29:57;;;;;;;16.38;10.30;;;;;;;;;;4964802;28;20028;-81
2022/03/06 09:32:28;;;;;;;14.63;10.40;;;;;;;;;;4968342;28;20035;-81
2022/03/06 09:34:58;;;;;;;13.75;9.98;;;;;;;;;;4978326;28;20073;-85
2022/03/06 09:37:28;;;;;;;13.90;10.20;;;;;;;;;;4980001;28;20480;-84
2022/03/06 09:39:53;;;;;;;14.68;10.23;;;;;;;;;;4968406;28;20503;-85
2022/03/06 09:42:30;;;;;;;14.27;10.10;;;;;;;;;;4969454;28;20068;-84
2022/03/06 09:45:04;;;;;;;14.77;10.60;;;;;;;;;;4958285;28;20117;-86
2022/03/06 09:47:30;;;;;;;17.20;9.85;;;;;;;;;;4974313;28;20034;-82
2022/03/06 09:49:56;;;;;;;14.73;9.55;;;;;;;;;;4957384;28;20027;-85
2022/03/06 09:52:21;;;;;;;13.60;9.02;;;;;;;;;;4966102;28;20027;-83
2022/03/06 09:54:47;;;;;;;18.48;9.52;;;;;;;;;;4977734;28;20026;-84
2022/03/06 09:57:18;;;;;;;14.10;9.48;;;;;;;;;;4978108;28;20113;-81
2022/03/06 09:59:44;;;;;;;14.73;9.45;;;;;;;;;;4980901;28;20031;-84
2022/03/06 10:02:11;;;;;;;12.55;8.77;;;;;;;;;;4975369;28;20443;-82
2022/03/06 10:04:37;;;;;;;15.65;9.60;;;;;;;;;;4966643;28;20023;-85
2022/03/06 10:07:03;;;;;;;12.90;9.57;;;;;;;;;;4964353;28;20087;-85
2022/03/06 10:09:30;;;;;;;12.40;8.88;;;;;;;;;;4972073;28;20038;-87
2022/03/06 10:11:55;;;;;;;13.85;9.93;;;;;;;;;;4986533;28;20026;-81
2022/03/06 10:14:41;;;;;;;12.40;9.10;;;;;;;;;;4979642;28;20404;-81
2022/03/06 10:17:11;;;;;;;13.73;9.02;;;;;;;;;;4961606;28;20115;-82
2022/03/06 10:19:58;;;;;;;15.60;9.43;;;;;;;;;;4971233;28;20018;-85
2022/03/06 10:22:34;;;;;;;13.90;9.18;;;;;;;;;;4966902;28;20077;-81
2022/03/06 10:25:08;;;;;;;14.10;9.65;;;;;;;;;;4966362;28;20035;-86
2022/03/06 10:27:47;;;;;;;12.30;8.73;;;;;;;;;;4969933;28;20063;-82
2022/03/06 10:30:29;;;;;;;13.18;8.95;;;;;;;;;;4974774;28;20054;-83
2022/03/06 10:32:59;;;;;;;15.70;9.25;;;;;;;;;;4981110;28;20105;-85
2022/03/06 10:35:36;;;;;;;12.73;8.45;;;;;;;;;;4970730;28;20390;-82
2022/03/06 10:38:17;;;;;;;12.52;8.30;;;;;;;;;;4959183;28;20046;-82
2022/03/06 10:40:43;;;;;;;12.40;8.95;;;;;;;;;;4980271;28;20042;-85
2022/03/06 10:43:34;;;;;;;12.00;8.45;;;;;;;;;;4965475;28;20026;-88
2022/03/06 10:49:57;;;;;;;;;;;;;;;;;;;;;
2022/03/06 10:52:24;;;;;;;13.85;8.90;;;;;;;;;;4955258;28;20126;-83
2022/03/06 10:55:13;;;;;;;13.02;8.80;;;;;;;;;;4965680;28;20451;-82
2022/03/06 10:58:03;;;;;;;12.68;8.20;;;;;;;;;;4965490;28;20443;-82
2022/03/06 11:00:42;;;;;;;12.63;8.70;;;;;;;;;;4967957;28;20040;-83
2022/03/06 11:03:13;;;;;;;14.02;8.32;;;;;;;;;;4969231;28;20062;-82
2022/03/06 11:05:46;;;;;;;12.57;8.57;;;;;;;;;;4975070;28;20034;-85
2022/03/06 11:08:16;;;;;;;12.45;8.52;;;;;;;;;;4963719;28;20034;-85
2022/03/06 11:10:44;;;;;;;12.65;7.90;;;;;;;;;;4969356;28;20027;-82
2022/03/06 11:13:16;;;;;;;13.07;7.95;;;;;;;;;;4983868;28;20049;-85
2022/03/06 11:15:44;;;;;;;12.43;8.75;;;;;;;;;;4964774;28;20055;-86
2022/03/06 11:18:16;;;;;;;12.95;8.95;;;;;;;;;;4971672;28;20504;-85
2022/03/06 11:20:45;;;;;;;12.52;8.05;;;;;;;;;;4973201;28;20046;-83
2022/03/06 11:23:51;;;;;;;10.60;8.00;;;;;;;;;;4978395;28;20038;-84
2022/03/06 11:26:18;;;;;;;11.45;7.78;;;;;;;;;;4963830;28;20078;-84
2022/03/06 11:29:18;;;;;;;12.13;8.50;;;;;;;;;;4960862;28;20026;-86
2022/03/06 11:31:51;;;;;;;12.68;8.30;;;;;;;;;;4982944;28;20947;-86
2022/03/06 11:34:22;;;;;;;13.98;9.63;;;;;;;;;;5008124;22;20053;-86
2022/03/06 11:36:49;;;;;;;11.38;8.00;;;;;;;;;;5007334;28;20044;-83
2022/03/06 11:39:48;;;;;;;11.77;8.63;;;;;;;;;;5012988;28;20046;-85
2022/03/06 11:42:51;;;;;;;13.23;8.70;;;;;;;;;;5005460;28;20585;-86
2022/03/06 11:45:51;;;;;;;11.20;7.95;;;;;;;;;;5014256;28;20066;-84
2022/03/06 11:48:26;;;;;;;11.70;8.32;;;;;;;;;;5016369;28;20033;-85
2022/03/06 11:51:23;;;;;;;11.35;8.23;;;;;;;;;;5020670;28;20041;-85
2022/03/06 11:54:17;;;;;;;12.20;7.90;;;;;;;;;;5014471;28;20022;-83
2022/03/06 11:56:51;;;;;;;11.30;8.15;;;;;;;;;;5026677;28;20132;-81
2022/03/06 11:59:29;;;;;;;11.10;8.18;;;;;;;;;;5013803;28;20037;-81
2022/03/06 12:01:56;;;;;;;12.85;8.27;;;;;;;;;;5012756;28;20030;-87
2022/03/06 12:04:34;;;;;;;13.15;8.13;;;;;;;;;;5012880;28;20027;-85
2022/03/06 12:07:17;;;;;;;12.40;8.38;;;;;;;;;;5015805;28;20033;-86
2022/03/06 12:10:23;;;;;;;13.05;8.48;;;;;;;;;;5012685;28;20664;-86
2022/03/06 12:13:01;;;;;;;14.30;8.13;;;;;;;;;;5008371;28;20474;-83
2022/03/06 12:15:28;;;;;;;11.07;7.75;;;;;;;;;;5015625;28;20033;-87
2022/03/06 12:18:03;;;;;;;11.95;8.00;;;;;;;;;;5012480;28;20022;-85
2022/03/06 12:20:47;;;;;;;12.82;7.88;;;;;;;;;;5020628;28;20584;-84
2022/03/06 12:23:47;;;;;;;10.88;7.72;;;;;;;;;;5023382;28;20038;-83
2022/03/06 12:26:57;;;;;;;10.93;6.88;;;;;;;;;;5010259;28;20088;-82
2022/03/06 12:30:25;;;;;;;11.55;7.28;;;;;;;;;;4928380;29;20024;-83
2022/03/06 12:33:59;;;;;;;12.75;7.70;;;;;;;;;;5008449;23;20279;-86
2022/03/06 12:36:28;;;;;;;11.13;7.30;;;;;;;;;;4951865;28;20042;-84
2022/03/06 12:40:04;;;;;;;9.88;7.13;;;;;;;;;;5000751;28;20041;-84
2022/03/06 12:42:33;;;;;;;10.15;7.22;;;;;;;;;;5025718;28;20175;-85
2022/03/06 12:45:01;;;;;;;10.65;7.25;;;;;;;;;;5013859;28;20021;-84
2022/03/06 12:47:30;;;;;;;10.95;7.00;;;;;;;;;;5027600;28;20481;-87
2022/03/06 12:50:01;;;;;;;12.88;7.70;;;;;;;;;;5019677;28;20017;-86
2022/03/06 12:52:30;;;;;;;11.00;7.35;;;;;;;;;;5037802;28;20031;-81
2022/03/06 12:55:19;;;;;;;11.77;7.45;;;;;;;;;;5034520;28;20112;-87
2022/03/06 12:58:01;;;;;;;9.45;6.95;;;;;;;;;;5018590;28;20022;-85
2022/03/06 13:00:34;;;;;;;10.50;6.75;;;;;;;;;;5020504;28;20057;-82
2022/03/06 13:03:07;;;;;;;9.80;6.93;;;;;;;;;;5023025;28;20036;-83
2022/03/06 13:05:35;;;;;;;11.55;7.40;;;;;;;;;;4989392;28;20108;-87
2022/03/06 13:08:04;;;;;;;9.90;7.00;;;;;;;;;;4979917;28;20066;-83
2022/03/06 13:10:32;;;;;;;12.40;7.30;;;;;;;;;;4975920;28;20034;-81
2022/03/06 13:13:06;;;;;;;10.38;6.45;;;;;;;;;;4992140;28;20073;-82
2022/03/06 13:15:34;;;;;;;9.95;6.85;;;;;;;;;;4974510;28;20034;-87
2022/03/06 13:18:07;;;;;;;9.50;7.15;;;;;;;;;;4989010;28;20424;-82
2022/03/06 13:20:37;;;;;;;10.48;6.97;;;;;;;;;;4971672;28;20030;-87
2022/03/06 13:23:07;;;;;;;9.90;7.03;;;;;;;;;;4988580;28;20034;-84
2022/03/06 13:25:35;;;;;;;11.88;6.85;;;;;;;;;;4988453;28;20380;-82
2022/03/06 13:28:08;;;;;;;11.52;7.35;;;;;;;;;;4979586;28;20030;-85
2022/03/06 13:30:36;;;;;;;10.18;7.03;;;;;;;;;;4976082;28;20045;-83
2022/03/06 13:33:08;;;;;;;9.25;6.68;;;;;;;;;;4974087;28;20522;-84
2022/03/06 13:35:43;;;;;;;10.73;6.88;;;;;;;;;;4955392;28;20185;-82
2022/03/06 13:38:12;;;;;;;9.85;7.05;;;;;;;;;;4986017;28;20030;-81
2022/03/06 13:40:40;;;;;;;10.13;6.93;;;;;;;;;;4994733;28;20406;-85
2022/03/06 13:43:09;;;;;;;9.65;7.05;;;;;;;;;;4993850;28;20038;-89
2022/03/06 13:46:39;;;;;;;10.05;6.38;;;;;;;;;;4993100;28;20039;-91
2022/03/06 13:49:21;;;;;;;9.57;6.57;;;;;;;;;;4944725;28;20027;-87
2022/03/06 13:52:10;;;;;;;10.38;6.75;;;;;;;;;;4934978;28;20035;-83
2022/03/06 13:54:41;;;;;;;10.20;6.57;;;;;;;;;;4909225;29;20055;-88
2022/03/06 13:57:12;;;;;;;10.70;7.05;;;;;;;;;;4916907;29;20227;-83
2022/03/06 13:59:42;;;;;;;9.65;6.40;;;;;;;;;;4950023;28;20145;-87
2022/03/06 14:02:11;;;;;;;9.85;6.85;;;;;;;;;;4992367;28;20030;-83
2022/03/06 14:07:41;;;;;;;8.70;5.93;;;;;;;;;;4971449;28;20547;-83
2022/03/06 14:10:12;;;;;;;9.45;6.18;;;;;;;;;;4966207;28;20182;-85
2022/03/06 14:12:47;;;;;;;8.32;5.82;;;;;;;;;;4959218;28;20665;-85
2022/03/06 14:16:12;;;;;;;8.95;6.18;;;;;;;;;;4969809;28;20030;-86
2022/03/06 14:22:16;;;;;;;10.10;6.25;;;;;;;;;;4918999;29;20028;-85
2022/03/06 14:24:44;;;;;;;8.63;5.95;;;;;;;;;;4893459;29;20044;-84
2022/03/06 14:27:16;;;;;;;8.73;5.88;;;;;;;;;;4913724;29;20068;-87
2022/03/06 14:29:48;;;;;;;10.65;6.63;;;;;;;;;;4897394;29;20126;-82
2022/03/06 14:32:16;;;;;;;9.15;6.05;;;;;;;;;;4912039;29;20501;-87
2022/03/06 14:34:50;;;;;;;8.00;6.00;;;;;;;;;;4910300;29;20074;-87
2022/03/06 14:37:24;;;;;;;9.45;6.30;;;;;;;;;;4912169;29;20044;-87
2022/03/06 14:39:50;;;;;;;8.85;6.03;;;;;;;;;;4933812;29;20035;-85
2022/03/06 14:42:18;;;;;;;8.75;6.18;;;;;;;;;;4930479;29;20564;-84
2022/03/06 14:44:49;;;;;;;8.02;5.60;;;;;;;;;;4929381;29;20039;-85
2022/03/06 14:47:18;;;;;;;9.35;5.80;;;;;;;;;;4929783;29;20059;-83
2022/03/06 14:49:49;;;;;;;8.55;5.68;;;;;;;;;;4971701;28;20667;-83